Time;durP1;ratioP1;P1;durP2;ratioP2;P2;SDS_P1;SDS_P2;PMS_P1;PMS_P2;Temp;Humidity;BMP_temperature;BMP_pressure;BME280_temperature;BME280_humidity;BME280_pressure;Samples;Min_cycle;Max_cycle;Signal;HPM_P1;HPM_P2
2023/06/28 00:02:20;;;;;;;1.65;1.00;;;;;;;;;;5028010;28;20033;-76
2023/06/28 00:04:46;;;;;;;3.72;0.95;;;;;;;;;;5028082;28;20026;-76
2023/06/28 00:07:11;;;;;;;1.98;0.90;;;;;;;;;;5027341;28;20029;-76
2023/06/28 00:09:37;;;;;;;2.30;1.00;;;;;;;;;;5028076;28;20014;-76
2023/06/28 00:12:03;;;;;;;2.13;1.42;;;;;;;;;;5027576;28;20026;-76
2023/06/28 00:14:29;;;;;;;2.13;0.90;;;;;;;;;;5028110;28;20385;-76
2023/06/28 00:16:54;;;;;;;2.33;1.13;;;;;;;;;;5030452;28;20021;-76
2023/06/28 00:19:26;;;;;;;2.97;1.30;;;;;;;;;;5046821;28;20029;-76
2023/06/28 00:21:52;;;;;;;2.28;1.10;;;;;;;;;;5030938;28;20105;-75
2023/06/28 00:24:18;;;;;;;1.77;0.77;;;;;;;;;;5031429;28;20030;-75
2023/06/28 00:26:43;;;;;;;1.80;1.00;;;;;;;;;;5031511;28;20096;-75
2023/06/28 00:29:09;;;;;;;2.35;1.10;;;;;;;;;;5031251;28;20828;-76
2023/06/28 00:31:34;;;;;;;2.25;1.05;;;;;;;;;;5031135;28;20021;-76
2023/06/28 00:34:00;;;;;;;2.47;1.20;;;;;;;;;;5030973;28;20095;-76
2023/06/28 00:36:25;;;;;;;2.58;1.10;;;;;;;;;;5046786;28;20105;-76
2023/06/28 00:38:50;;;;;;;1.92;0.90;;;;;;;;;;5030750;28;20080;-76
2023/06/28 00:41:16;;;;;;;2.33;0.95;;;;;;;;;;5031203;28;20036;-76
2023/06/28 00:43:41;;;;;;;7.13;1.10;;;;;;;;;;5045925;28;20033;-76
2023/06/28 00:46:07;;;;;;;4.95;1.05;;;;;;;;;;5031108;28;20548;-76
2023/06/28 00:48:33;;;;;;;7.20;1.67;;;;;;;;;;5030709;28;20029;-76
2023/06/28 00:50:59;;;;;;;2.00;1.20;;;;;;;;;;5031127;28;20466;-76
2023/06/28 00:53:25;;;;;;;2.78;1.17;;;;;;;;;;5030369;28;20075;-76
2023/06/28 00:55:51;;;;;;;3.38;1.30;;;;;;;;;;5030891;28;20030;-76
2023/06/28 00:58:17;;;;;;;2.72;1.42;;;;;;;;;;5030692;28;20021;-76
2023/06/28 01:00:44;;;;;;;1.73;1.13;;;;;;;;;;5030905;28;20029;-75
2023/06/28 01:03:10;;;;;;;3.63;1.15;;;;;;;;;;5030446;28;20030;-75
2023/06/28 01:05:35;;;;;;;2.13;1.15;;;;;;;;;;5030784;28;20188;-76
2023/06/28 01:08:02;;;;;;;2.42;1.10;;;;;;;;;;5030096;28;20021;-75
2023/06/28 01:10:28;;;;;;;1.45;1.00;;;;;;;;;;5030783;28;20025;-75
2023/06/28 01:12:54;;;;;;;2.67;1.17;;;;;;;;;;5030420;28;20033;-76
2023/06/28 01:15:20;;;;;;;1.00;0.90;;;;;;;;;;5045799;28;20029;-76
2023/06/28 01:17:46;;;;;;;3.08;1.60;;;;;;;;;;5030392;28;20037;-76
2023/06/28 01:20:11;;;;;;;2.53;1.40;;;;;;;;;;5030370;28;20634;-76
2023/06/28 01:22:41;;;;;;;1.73;1.05;;;;;;;;;;5029779;28;20037;-76
2023/06/28 01:25:09;;;;;;;3.00;1.08;;;;;;;;;;5030013;28;20116;-75
2023/06/28 01:27:35;;;;;;;2.75;1.20;;;;;;;;;;5029369;28;20035;-76
2023/06/28 01:30:01;;;;;;;2.88;1.25;;;;;;;;;;5030347;28;20497;-76
2023/06/28 01:32:26;;;;;;;2.45;1.10;;;;;;;;;;5045230;28;20052;-76
2023/06/28 01:34:52;;;;;;;4.78;1.10;;;;;;;;;;5030194;28;20036;-76
2023/06/28 01:37:18;;;;;;;1.95;1.05;;;;;;;;;;5029994;28;20049;-76
2023/06/28 01:39:44;;;;;;;2.25;1.20;;;;;;;;;;5029711;28;20385;-76
2023/06/28 01:42:10;;;;;;;2.53;1.15;;;;;;;;;;5030126;28;20545;-76
2023/06/28 01:44:35;;;;;;;2.42;1.20;;;;;;;;;;5036628;28;20082;-75
2023/06/28 01:47:01;;;;;;;2.67;1.15;;;;;;;;;;5050053;28;20112;-76
2023/06/28 01:49:26;;;;;;;1.35;0.80;;;;;;;;;;5049767;28;20664;-75
2023/06/28 01:51:55;;;;;;;2.58;1.20;;;;;;;;;;5049572;28;20035;-76
2023/06/28 01:54:21;;;;;;;2.40;1.00;;;;;;;;;;5049320;28;20037;-76
2023/06/28 01:56:46;;;;;;;2.05;1.10;;;;;;;;;;5049622;28;20086;-76
2023/06/28 01:59:12;;;;;;;2.55;1.23;;;;;;;;;;5049498;28;20036;-76
2023/06/28 02:01:37;;;;;;;1.80;1.00;;;;;;;;;;5049540;28;20017;-76
2023/06/28 02:04:03;;;;;;;2.10;0.98;;;;;;;;;;5048968;28;20032;-75
2023/06/28 02:06:28;;;;;;;1.70;0.90;;;;;;;;;;5049769;28;20174;-76
2023/06/28 02:08:54;;;;;;;4.03;1.05;;;;;;;;;;5048914;28;20018;-75
2023/06/28 02:11:19;;;;;;;2.22;1.13;;;;;;;;;;5049440;28;20021;-76
2023/06/28 02:13:45;;;;;;;8.15;1.20;;;;;;;;;;5049011;28;20040;-76
2023/06/28 02:16:10;;;;;;;2.92;1.05;;;;;;;;;;5049337;28;20505;-76
2023/06/28 02:18:36;;;;;;;1.73;0.88;;;;;;;;;;5049233;28;20025;-76
2023/06/28 02:21:02;;;;;;;3.63;1.02;;;;;;;;;;5049346;28;20099;-75
2023/06/28 02:23:27;;;;;;;2.00;1.00;;;;;;;;;;5048484;28;20051;-76
2023/06/28 02:25:52;;;;;;;2.83;1.10;;;;;;;;;;5049420;28;20103;-75
2023/06/28 02:28:19;;;;;;;2.67;1.50;;;;;;;;;;5049217;28;20025;-77
2023/06/28 02:30:45;;;;;;;5.10;1.30;;;;;;;;;;5048883;28;20057;-76
2023/06/28 02:33:11;;;;;;;1.30;1.05;;;;;;;;;;5048641;28;20053;-76
2023/06/28 02:35:36;;;;;;;2.20;1.08;;;;;;;;;;5048715;28;20683;-75
2023/06/28 02:38:02;;;;;;;1.65;1.00;;;;;;;;;;5048309;28;20124;-75
2023/06/28 02:40:27;;;;;;;2.10;1.00;;;;;;;;;;5048948;28;20067;-76
2023/06/28 02:42:53;;;;;;;2.20;1.15;;;;;;;;;;5048973;28;20094;-76
2023/06/28 02:45:19;;;;;;;3.92;1.10;;;;;;;;;;5048495;28;20020;-76
2023/06/28 02:47:44;;;;;;;2.05;0.93;;;;;;;;;;5048728;28;20539;-76
2023/06/28 02:50:10;;;;;;;1.83;1.17;;;;;;;;;;5048447;28;20028;-76
2023/06/28 02:52:35;;;;;;;2.97;1.25;;;;;;;;;;5048370;28;20108;-76
2023/06/28 02:55:01;;;;;;;4.38;1.15;;;;;;;;;;5046836;28;20121;-76
2023/06/28 02:57:26;;;;;;;2.10;0.95;;;;;;;;;;5048674;28;20622;-76
2023/06/28 02:59:52;;;;;;;1.95;1.20;;;;;;;;;;5048627;28;20095;-75
2023/06/28 03:02:18;;;;;;;2.08;1.00;;;;;;;;;;5048805;28;20029;-76
2023/06/28 03:04:43;;;;;;;1.23;0.80;;;;;;;;;;5048138;28;20103;-76
2023/06/28 03:07:16;;;;;;;1.40;0.80;;;;;;;;;;5048124;28;20715;-76
2023/06/28 03:09:41;;;;;;;1.73;0.93;;;;;;;;;;5048240;28;20051;-76
2023/06/28 03:12:07;;;;;;;2.83;0.80;;;;;;;;;;5048667;28;20485;-76
2023/06/28 03:14:33;;;;;;;1.90;1.00;;;;;;;;;;5048129;28;20036;-76
2023/06/28 03:16:59;;;;;;;2.42;0.98;;;;;;;;;;5048616;28;20072;-75
2023/06/28 03:19:24;;;;;;;1.80;1.08;;;;;;;;;;5047148;28;20448;-76
2023/06/28 03:21:50;;;;;;;3.92;1.10;;;;;;;;;;5048058;28;20035;-76
2023/06/28 03:24:15;;;;;;;2.03;1.20;;;;;;;;;;5047991;28;20048;-75
2023/06/28 03:26:41;;;;;;;2.03;1.20;;;;;;;;;;5048501;28;20083;-74
2023/06/28 03:29:06;;;;;;;3.38;0.93;;;;;;;;;;5048318;28;20514;-76
2023/06/28 03:31:32;;;;;;;1.75;1.10;;;;;;;;;;5046792;28;20587;-76
2023/06/28 03:33:58;;;;;;;2.25;1.10;;;;;;;;;;5047916;28;20025;-76
2023/06/28 03:36:25;;;;;;;2.60;1.20;;;;;;;;;;5048095;28;20036;-76
2023/06/28 03:38:51;;;;;;;1.30;1.02;;;;;;;;;;5047966;28;20408;-76
2023/06/28 03:41:19;;;;;;;3.22;1.15;;;;;;;;;;5048019;28;20477;-75
2023/06/28 03:43:44;;;;;;;1.25;0.85;;;;;;;;;;5048257;28;20091;-76
2023/06/28 03:46:10;;;;;;;1.40;0.90;;;;;;;;;;5047927;28;20021;-77
2023/06/28 03:48:35;;;;;;;2.03;0.98;;;;;;;;;;5046596;28;20588;-75
2023/06/28 03:51:01;;;;;;;2.30;1.23;;;;;;;;;;5049409;28;20032;-75
2023/06/28 03:53:26;;;;;;;2.13;1.30;;;;;;;;;;5054377;28;20055;-75
2023/06/28 03:55:51;;;;;;;3.05;1.10;;;;;;;;;;5063503;28;20048;-75
2023/06/28 03:58:17;;;;;;;6.85;1.30;;;;;;;;;;5063478;28;20039;-74
2023/06/28 04:00:42;;;;;;;3.30;1.30;;;;;;;;;;5063328;28;20063;-75
2023/06/28 04:03:08;;;;;;;4.90;1.20;;;;;;;;;;5063472;28;20209;-75
2023/06/28 04:05:34;;;;;;;2.65;1.05;;;;;;;;;;5063068;28;20126;-74
2023/06/28 04:07:59;;;;;;;2.85;1.38;;;;;;;;;;5063217;28;20037;-75
2023/06/28 04:10:25;;;;;;;2.67;1.40;;;;;;;;;;5063284;28;20055;-75
2023/06/28 04:12:51;;;;;;;2.08;1.20;;;;;;;;;;5063390;28;20032;-76
2023/06/28 04:15:19;;;;;;;4.45;1.30;;;;;;;;;;5063041;28;20032;-75
2023/06/28 04:17:45;;;;;;;2.95;1.30;;;;;;;;;;5063129;28;20059;-75
2023/06/28 04:20:10;;;;;;;1.98;1.23;;;;;;;;;;5062969;28;20103;-76
2023/06/28 04:22:36;;;;;;;4.72;1.35;;;;;;;;;;5062734;28;20035;-75
2023/06/28 04:25:02;;;;;;;4.05;1.13;;;;;;;;;;5062660;28;20052;-75
2023/06/28 04:27:28;;;;;;;5.57;1.50;;;;;;;;;;5063207;28;20024;-75
2023/06/28 04:29:53;;;;;;;4.75;1.38;;;;;;;;;;5062888;28;20476;-75
2023/06/28 04:32:23;;;;;;;3.90;1.60;;;;;;;;;;5062839;28;20032;-75
2023/06/28 04:34:52;;;;;;;3.85;1.67;;;;;;;;;;5062616;28;20032;-75
2023/06/28 04:37:18;;;;;;;3.17;1.60;;;;;;;;;;5062377;28;20059;-76
2023/06/28 04:39:44;;;;;;;2.72;1.25;;;;;;;;;;5062594;28;20029;-75
2023/06/28 04:42:09;;;;;;;1.75;1.05;;;;;;;;;;5062694;28;20071;-76
2023/06/28 04:44:36;;;;;;;11.65;1.83;;;;;;;;;;5061319;28;20174;-76
2023/06/28 04:47:02;;;;;;;2.13;1.30;;;;;;;;;;5062407;28;20021;-75
2023/06/28 04:49:28;;;;;;;5.05;1.60;;;;;;;;;;5062591;28;20031;-75
2023/06/28 04:51:54;;;;;;;2.40;1.48;;;;;;;;;;5062073;28;20032;-76
2023/06/28 04:54:19;;;;;;;2.65;1.50;;;;;;;;;;5062282;28;20028;-76
2023/06/28 04:56:45;;;;;;;2.30;1.02;;;;;;;;;;5062236;28;20049;-76
2023/06/28 04:59:10;;;;;;;2.00;1.30;;;;;;;;;;5062453;28;20028;-76
2023/06/28 05:01:37;;;;;;;3.33;1.50;;;;;;;;;;5062272;28;20032;-75
2023/06/28 05:04:03;;;;;;;12.13;1.50;;;;;;;;;;5062171;28;20029;-76
2023/06/28 05:06:29;;;;;;;2.72;1.27;;;;;;;;;;5062243;28;20044;-75
2023/06/28 05:08:54;;;;;;;2.78;1.40;;;;;;;;;;5061840;28;20043;-75
2023/06/28 05:11:20;;;;;;;3.00;1.25;;;;;;;;;;5061887;28;20105;-74
2023/06/28 05:13:45;;;;;;;2.33;1.42;;;;;;;;;;5062043;28;20062;-74
2023/06/28 05:16:11;;;;;;;2.30;1.33;;;;;;;;;;5061859;28;20047;-74
2023/06/28 05:18:36;;;;;;;5.20;1.60;;;;;;;;;;5060859;28;20017;-75
2023/06/28 05:21:02;;;;;;;3.42;1.40;;;;;;;;;;5061647;28;20057;-75
2023/06/28 05:23:27;;;;;;;2.35;1.38;;;;;;;;;;5061655;28;20023;-75
2023/06/28 05:25:53;;;;;;;4.50;1.58;;;;;;;;;;5061748;28;20021;-76
2023/06/28 05:28:18;;;;;;;3.58;1.70;;;;;;;;;;5061833;28;20088;-77
2023/06/28 05:30:44;;;;;;;5.40;1.90;;;;;;;;;;5061609;28;20029;-77
2023/06/28 05:33:10;;;;;;;2.60;1.30;;;;;;;;;;5061620;28;20033;-77
2023/06/28 05:35:36;;;;;;;2.05;1.30;;;;;;;;;;5061437;28;20033;-77
2023/06/28 05:38:03;;;;;;;3.35;1.48;;;;;;;;;;5061233;28;20173;-77
2023/06/28 05:40:30;;;;;;;3.95;1.35;;;;;;;;;;5059344;28;20033;-77
2023/06/28 05:42:58;;;;;;;6.88;1.70;;;;;;;;;;5059966;28;20025;-78
2023/06/28 05:45:25;;;;;;;4.13;1.70;;;;;;;;;;5061180;28;20029;-76
2023/06/28 05:47:50;;;;;;;2.10;1.30;;;;;;;;;;5061370;28;20029;-75
2023/06/28 05:50:16;;;;;;;3.22;1.40;;;;;;;;;;5061430;28;20213;-76
2023/06/28 05:52:44;;;;;;;4.13;1.90;;;;;;;;;;5060740;28;20017;-75
2023/06/28 05:55:10;;;;;;;2.58;1.48;;;;;;;;;;5056467;28;20064;-76
2023/06/28 05:57:36;;;;;;;3.25;1.38;;;;;;;;;;5061304;28;20032;-76
2023/06/28 06:00:07;;;;;;;4.80;1.55;;;;;;;;;;5061302;28;20021;-76
2023/06/28 06:02:33;;;;;;;4.22;1.20;;;;;;;;;;5061067;28;20080;-75
2023/06/28 06:04:59;;;;;;;3.45;1.45;;;;;;;;;;5060897;28;20052;-75
2023/06/28 06:07:25;;;;;;;2.70;1.35;;;;;;;;;;5060577;28;20036;-74
2023/06/28 06:09:50;;;;;;;9.00;1.70;;;;;;;;;;5060901;28;20147;-75
2023/06/28 06:12:16;;;;;;;2.40;1.30;;;;;;;;;;5061014;28;20092;-74
2023/06/28 06:14:41;;;;;;;4.15;1.95;;;;;;;;;;5060230;28;20021;-75
2023/06/28 06:17:06;;;;;;;1.92;1.15;;;;;;;;;;5059439;28;20017;-82
2023/06/28 06:19:32;;;;;;;6.93;1.58;;;;;;;;;;5060874;28;20109;-78
2023/06/28 06:21:57;;;;;;;2.72;1.27;;;;;;;;;;5054273;28;20045;-73
2023/06/28 06:24:23;;;;;;;1.73;1.10;;;;;;;;;;5060658;28;20037;-71
2023/06/28 06:26:48;;;;;;;2.15;1.30;;;;;;;;;;5060503;28;20321;-70
2023/06/28 06:29:13;;;;;;;6.78;1.55;;;;;;;;;;5060883;28;20021;-74
2023/06/28 06:31:39;;;;;;;2.60;1.20;;;;;;;;;;5060401;28;20281;-76
2023/06/28 06:34:04;;;;;;;2.63;1.50;;;;;;;;;;5060698;28;20025;-79
2023/06/28 06:36:30;;;;;;;5.60;1.55;;;;;;;;;;5058914;28;20143;-77
2023/06/28 06:38:56;;;;;;;8.45;1.40;;;;;;;;;;5050482;28;20037;-70
2023/06/28 06:41:22;;;;;;;4.13;1.52;;;;;;;;;;5048571;28;20133;-75
2023/06/28 06:43:48;;;;;;;3.22;1.58;;;;;;;;;;5047313;28;20622;-76
2023/06/28 06:46:13;;;;;;;3.72;2.15;;;;;;;;;;5051023;28;20028;-77
2023/06/28 06:48:38;;;;;;;4.78;1.20;;;;;;;;;;5051897;28;20096;-77
2023/06/28 06:51:05;;;;;;;4.57;1.48;;;;;;;;;;5054317;28;20029;-78
2023/06/28 06:53:31;;;;;;;3.78;1.42;;;;;;;;;;5059050;28;20040;-79
2023/06/28 06:55:56;;;;;;;3.35;1.63;;;;;;;;;;5059045;28;20240;-78
2023/06/28 06:58:23;;;;;;;2.72;1.52;;;;;;;;;;5069651;28;20036;-80
2023/06/28 07:00:51;;;;;;;4.60;1.40;;;;;;;;;;5073135;28;20028;-74
2023/06/28 07:03:17;;;;;;;2.22;1.25;;;;;;;;;;5073993;28;20051;-77
2023/06/28 07:05:42;;;;;;;2.15;1.10;;;;;;;;;;5074308;28;20024;-75
2023/06/28 07:08:08;;;;;;;2.72;1.13;;;;;;;;;;5079454;28;20031;-75
2023/06/28 07:10:33;;;;;;;6.03;1.50;;;;;;;;;;5080293;28;20168;-83
2023/06/28 07:12:58;;;;;;;4.63;1.38;;;;;;;;;;5063854;28;20021;-74
2023/06/28 07:15:24;;;;;;;2.33;1.17;;;;;;;;;;5069154;28;20024;-75
2023/06/28 07:17:50;;;;;;;2.25;1.10;;;;;;;;;;5074536;28;20102;-74
2023/06/28 07:20:16;;;;;;;2.70;1.30;;;;;;;;;;5067379;28;20354;-74
2023/06/28 07:22:41;;;;;;;3.10;1.40;;;;;;;;;;5061904;28;20089;-74
2023/06/28 07:25:07;;;;;;;2.47;1.25;;;;;;;;;;5064805;28;20031;-74
2023/06/28 07:27:32;;;;;;;3.80;1.10;;;;;;;;;;5061482;28;20101;-77
2023/06/28 07:29:58;;;;;;;2.10;1.30;;;;;;;;;;5061163;28;20041;-75
2023/06/28 07:32:26;;;;;;;2.45;1.35;;;;;;;;;;5073387;28;20046;-74
2023/06/28 07:34:52;;;;;;;1.92;1.33;;;;;;;;;;5071989;28;20129;-76
2023/06/28 07:37:17;;;;;;;3.38;1.30;;;;;;;;;;5083484;28;20236;-74
2023/06/28 07:39:42;;;;;;;1.30;1.00;;;;;;;;;;5061801;28;20144;-75
2023/06/28 07:42:08;;;;;;;2.80;1.63;;;;;;;;;;5062036;28;20048;-75
2023/06/28 07:44:33;;;;;;;1.52;1.10;;;;;;;;;;5062753;28;20346;-75
2023/06/28 07:46:59;;;;;;;3.33;1.50;;;;;;;;;;5052953;28;20331;-73
2023/06/28 07:49:24;;;;;;;3.47;1.23;;;;;;;;;;5068312;28;20033;-74
2023/06/28 07:51:49;;;;;;;2.90;1.23;;;;;;;;;;5060585;28;20052;-73
2023/06/28 07:54:15;;;;;;;2.10;1.30;;;;;;;;;;5059603;28;20028;-74
2023/06/28 07:56:40;;;;;;;4.95;1.00;;;;;;;;;;5075113;28;20028;-73
2023/06/28 07:59:05;;;;;;;1.70;1.20;;;;;;;;;;5082887;28;20024;-79
2023/06/28 08:01:33;;;;;;;4.13;1.20;;;;;;;;;;5082742;28;20036;-75
2023/06/28 08:03:59;;;;;;;1.50;1.20;;;;;;;;;;5082732;28;20045;-73
2023/06/28 08:06:25;;;;;;;3.70;1.40;;;;;;;;;;5078937;28;20081;-76
2023/06/28 08:08:50;;;;;;;1.50;0.98;;;;;;;;;;5082788;28;20308;-81
2023/06/28 08:11:16;;;;;;;1.80;1.15;;;;;;;;;;5083118;28;20293;-85
2023/06/28 08:13:41;;;;;;;3.22;1.60;;;;;;;;;;5082748;28;20048;-80
2023/06/28 08:16:07;;;;;;;2.80;1.65;;;;;;;;;;5082910;28;20036;-78
2023/06/28 08:18:36;;;;;;;2.65;1.55;;;;;;;;;;5081258;28;20052;-83
2023/06/28 08:21:01;;;;;;;3.67;1.33;;;;;;;;;;5080103;28;20035;-77
2023/06/28 08:23:27;;;;;;;2.60;1.27;;;;;;;;;;5066421;28;20037;-82
2023/06/28 08:25:52;;;;;;;3.08;1.23;;;;;;;;;;5082483;28;20035;-74
2023/06/28 08:28:17;;;;;;;2.20;1.20;;;;;;;;;;5071590;28;20040;-77
2023/06/28 08:30:43;;;;;;;2.10;1.40;;;;;;;;;;5064222;28;20083;-76
2023/06/28 08:33:09;;;;;;;2.05;1.27;;;;;;;;;;5080887;28;20115;-76
2023/06/28 08:35:34;;;;;;;1.95;1.13;;;;;;;;;;5082188;28;20036;-77
2023/06/28 08:37:59;;;;;;;4.85;1.20;;;;;;;;;;5081344;28;20351;-76
2023/06/28 08:40:29;;;;;;;2.15;1.38;;;;;;;;;;5082394;28;20039;-77
2023/06/28 08:43:00;;;;;;;2.05;1.23;;;;;;;;;;5081350;28;20032;-76
2023/06/28 08:45:26;;;;;;;3.85;1.65;;;;;;;;;;5082303;28;20062;-82
2023/06/28 08:47:53;;;;;;;6.00;1.98;;;;;;;;;;5081122;28;20187;-81
2023/06/28 08:50:19;;;;;;;2.13;1.50;;;;;;;;;;5079792;28;20064;-80
2023/06/28 08:52:46;;;;;;;4.93;1.23;;;;;;;;;;5081837;28;20059;-80
2023/06/28 08:55:12;;;;;;;1.67;0.98;;;;;;;;;;5082400;28;20036;-76
2023/06/28 08:57:39;;;;;;;3.47;1.25;;;;;;;;;;5069157;28;20287;-77
2023/06/28 09:00:06;;;;;;;3.38;1.23;;;;;;;;;;5082198;28;20091;-76
2023/06/28 09:02:34;;;;;;;2.20;1.30;;;;;;;;;;5081972;28;20028;-76
2023/06/28 09:05:01;;;;;;;5.60;1.60;;;;;;;;;;5081901;28;20028;-76
2023/06/28 09:07:27;;;;;;;2.38;1.40;;;;;;;;;;5081386;28;20036;-76
2023/06/28 09:09:54;;;;;;;2.33;1.25;;;;;;;;;;5082047;28;20407;-77
2023/06/28 09:12:21;;;;;;;2.03;1.02;;;;;;;;;;5082144;28;20055;-83
2023/06/28 09:14:46;;;;;;;2.78;1.20;;;;;;;;;;5080524;28;20024;-80
2023/06/28 09:17:12;;;;;;;5.50;1.33;;;;;;;;;;5080744;28;20078;-86
2023/06/28 09:19:38;;;;;;;2.03;1.30;;;;;;;;;;5081903;28;20036;-76
2023/06/28 09:22:04;;;;;;;4.10;1.92;;;;;;;;;;5081400;28;20217;-80
2023/06/28 09:24:39;;;;;;;2.55;1.23;;;;;;;;;;5081739;28;20032;-78
2023/06/28 09:27:07;;;;;;;3.00;1.40;;;;;;;;;;5081630;28;20092;-79
2023/06/28 09:29:33;;;;;;;5.53;1.40;;;;;;;;;;5068584;28;20377;-73
2023/06/28 09:32:00;;;;;;;4.78;1.20;;;;;;;;;;5077982;28;20148;-76
2023/06/28 09:34:25;;;;;;;2.03;1.20;;;;;;;;;;5045055;28;20022;-78
2023/06/28 09:36:55;;;;;;;2.08;1.17;;;;;;;;;;5040613;28;20029;-75
2023/06/28 09:39:21;;;;;;;1.33;1.00;;;;;;;;;;5041139;28;20049;-75
2023/06/28 09:41:48;;;;;;;2.75;1.15;;;;;;;;;;5041579;28;20040;-75
2023/06/28 09:44:13;;;;;;;1.92;0.93;;;;;;;;;;5040893;28;20122;-75
2023/06/28 09:46:44;;;;;;;1.52;0.93;;;;;;;;;;5041267;28;20028;-76
2023/06/28 09:49:25;;;;;;;1.80;1.15;;;;;;;;;;5040523;28;20025;-75
2023/06/28 09:52:06;;;;;;;2.28;1.15;;;;;;;;;;5041089;28;20033;-74
2023/06/28 09:54:32;;;;;;;;;;;;;;;;;;5041613;28;20029;-78
2023/06/28 09:56:59;;;;;;;3.08;1.17;;;;;;;;;;5041261;28;19936;-75
2023/06/28 09:59:27;;;;;;;2.90;1.63;;;;;;;;;;5041158;28;20032;-75
2023/06/28 10:01:56;;;;;;;2.15;1.00;;;;;;;;;;5041232;28;20055;-74
2023/06/28 10:04:26;;;;;;;4.00;1.00;;;;;;;;;;5039980;28;20032;-80
2023/06/28 10:06:53;;;;;;;2.17;1.20;;;;;;;;;;5056117;28;20206;-80
2023/06/28 10:09:21;;;;;;;1.33;0.95;;;;;;;;;;5040943;28;20363;-78
2023/06/28 10:11:48;;;;;;;1.38;0.85;;;;;;;;;;5040970;28;20148;-76
2023/06/28 10:14:17;;;;;;;4.50;1.45;;;;;;;;;;5040632;28;20056;-80
2023/06/28 10:16:45;;;;;;;2.40;0.90;;;;;;;;;;5040779;28;20030;-72
2023/06/28 10:19:10;;;;;;;2.10;1.15;;;;;;;;;;5040740;28;20049;-74
2023/06/28 10:21:39;;;;;;;1.80;1.10;;;;;;;;;;5042965;28;20038;-73
2023/06/28 10:24:06;;;;;;;4.28;1.80;;;;;;;;;;5040082;28;20043;-72
2023/06/28 10:26:31;;;;;;;5.93;1.30;;;;;;;;;;5060691;28;20025;-74
2023/06/28 10:28:57;;;;;;;1.30;1.00;;;;;;;;;;5059767;28;20037;-73
2023/06/28 10:31:24;;;;;;;4.63;1.17;;;;;;;;;;5045871;28;20028;-74
2023/06/28 10:33:52;;;;;;;3.78;1.10;;;;;;;;;;5055356;28;20088;-73
2023/06/28 10:36:18;;;;;;;5.43;1.10;;;;;;;;;;5040422;28;20029;-73
2023/06/28 10:38:43;;;;;;;3.10;1.10;;;;;;;;;;5049809;28;20032;-72
2023/06/28 10:41:14;;;;;;;2.83;1.98;;;;;;;;;;5060494;28;20017;-72
2023/06/28 10:43:39;;;;;;;1.95;1.23;;;;;;;;;;5060345;28;20055;-75
2023/06/28 10:46:24;;;;;;;2.17;1.00;;;;;;;;;;5060005;28;20294;-73
2023/06/28 10:48:53;;;;;;;1.88;0.77;;;;;;;;;;5060249;28;20036;-73
2023/06/28 10:51:25;;;;;;;2.22;1.00;;;;;;;;;;5060099;28;20321;-75
2023/06/28 10:54:06;;;;;;;2.47;1.20;;;;;;;;;;5059648;28;20044;-76
2023/06/28 10:56:47;;;;;;;1.50;0.88;;;;;;;;;;5059261;28;20228;-78
2023/06/28 10:59:12;;;;;;;3.97;1.00;;;;;;;;;;5059366;28;20091;-74
2023/06/28 11:01:56;;;;;;;2.05;0.77;;;;;;;;;;5059682;28;20028;-82
2023/06/28 11:04:25;;;;;;;1.17;0.82;;;;;;;;;;5059089;28;20052;-77
2023/06/28 11:07:03;;;;;;;1.40;0.80;;;;;;;;;;5058939;28;20039;-79
2023/06/28 11:09:28;;;;;;;1.10;0.80;;;;;;;;;;5059809;28;20106;-78
2023/06/28 11:11:57;;;;;;;1.30;1.00;;;;;;;;;;5059950;28;20029;-84
2023/06/28 11:14:25;;;;;;;2.13;1.23;;;;;;;;;;5052809;28;20136;-73
2023/06/28 11:16:52;;;;;;;1.20;0.90;;;;;;;;;;5053677;28;20040;-77
2023/06/28 11:19:24;;;;;;;1.90;0.93;;;;;;;;;;5042791;28;20029;-75
2023/06/28 11:21:57;;;;;;;3.13;0.95;;;;;;;;;;5041545;28;20097;-76
2023/06/28 11:24:42;;;;;;;1.75;0.98;;;;;;;;;;5059726;28;20033;-77
2023/06/28 11:27:17;;;;;;;3.25;1.02;;;;;;;;;;5059691;28;20131;-76
2023/06/28 11:30:00;;;;;;;3.47;1.05;;;;;;;;;;5059765;28;20037;-74
2023/06/28 11:32:27;;;;;;;1.88;1.08;;;;;;;;;;5040446;28;20053;-77
2023/06/28 11:34:54;;;;;;;1.55;0.88;;;;;;;;;;5039654;28;20057;-76
2023/06/28 11:37:21;;;;;;;2.63;0.82;;;;;;;;;;5039271;28;20042;-75
2023/06/28 11:39:48;;;;;;;1.92;0.93;;;;;;;;;;5039813;28;20034;-75
2023/06/28 11:42:13;;;;;;;5.03;0.70;;;;;;;;;;5039528;28;20037;-76
2023/06/28 11:44:49;;;;;;;3.80;1.00;;;;;;;;;;5039412;28;20068;-74
2023/06/28 11:47:23;;;;;;;5.07;1.10;;;;;;;;;;5040240;28;20151;-75
2023/06/28 11:49:49;;;;;;;1.90;1.00;;;;;;;;;;5059419;28;20025;-75
2023/06/28 11:52:18;;;;;;;0.98;0.75;;;;;;;;;;5059236;28;20033;-75
2023/06/28 11:54:44;;;;;;;9.60;4.33;;;;;;;;;;5059549;28;20031;-73
2023/06/28 11:57:11;;;;;;;4.07;1.52;;;;;;;;;;5059415;28;20049;-80
2023/06/28 11:59:38;;;;;;;1.08;0.70;;;;;;;;;;5057308;28;20114;-75
2023/06/28 12:02:07;;;;;;;0.95;0.73;;;;;;;;;;5057884;28;20031;-75
2023/06/28 12:04:34;;;;;;;2.00;0.80;;;;;;;;;;5059318;28;20104;-78
2023/06/28 12:07:01;;;;;;;2.65;0.65;;;;;;;;;;5058986;28;20074;-77
2023/06/28 12:09:28;;;;;;;2.85;0.70;;;;;;;;;;5049760;28;20021;-77
2023/06/28 12:11:59;;;;;;;0.93;0.68;;;;;;;;;;5056498;28;20229;-75
2023/06/28 12:14:27;;;;;;;1.15;0.60;;;;;;;;;;5043818;28;20033;-75
2023/06/28 12:16:53;;;;;;;2.55;1.02;;;;;;;;;;5047032;28;20025;-77
2023/06/28 12:19:19;;;;;;;1.30;0.98;;;;;;;;;;5061513;28;20486;-75
2023/06/28 12:21:45;;;;;;;1.75;0.80;;;;;;;;;;5062251;28;20217;-74
2023/06/28 12:24:25;;;;;;;2.97;1.00;;;;;;;;;;5062872;28;20341;-76
2023/06/28 12:26:53;;;;;;;3.25;0.88;;;;;;;;;;5062288;28;20028;-73
2023/06/28 12:29:20;;;;;;;2.28;0.85;;;;;;;;;;5062682;28;20023;-73
2023/06/28 12:31:47;;;;;;;1.02;0.77;;;;;;;;;;5062606;28;20092;-75
2023/06/28 12:34:14;;;;;;;3.90;0.70;;;;;;;;;;5062678;28;20112;-72
2023/06/28 12:36:40;;;;;;;2.42;1.40;;;;;;;;;;5062304;28;20043;-74
2023/06/28 12:39:07;;;;;;;4.13;1.23;;;;;;;;;;5062539;28;20297;-74
2023/06/28 12:41:32;;;;;;;3.72;0.88;;;;;;;;;;5062580;28;20193;-72
2023/06/28 12:43:58;;;;;;;1.27;0.73;;;;;;;;;;5062161;28;20139;-73
2023/06/28 12:46:25;;;;;;;3.47;1.17;;;;;;;;;;5061541;28;20033;-72
2023/06/28 12:48:55;;;;;;;1.38;0.80;;;;;;;;;;5060609;28;20205;-73
2023/06/28 12:51:21;;;;;;;1.47;0.90;;;;;;;;;;5061326;28;20025;-72
2023/06/28 12:53:47;;;;;;;2.00;1.05;;;;;;;;;;5061096;28;20096;-73
2023/06/28 12:56:12;;;;;;;1.17;0.80;;;;;;;;;;5060969;28;20147;-73
2023/06/28 12:58:37;;;;;;;2.10;0.88;;;;;;;;;;5061261;28;20036;-73
2023/06/28 13:01:03;;;;;;;1.50;0.88;;;;;;;;;;5061111;28;20025;-72
2023/06/28 13:03:28;;;;;;;5.45;0.90;;;;;;;;;;5061349;28;20032;-73
2023/06/28 13:05:54;;;;;;;1.60;0.90;;;;;;;;;;5061982;28;20048;-72
2023/06/28 13:08:19;;;;;;;2.03;1.00;;;;;;;;;;5061581;28;20100;-73
2023/06/28 13:10:45;;;;;;;3.63;1.08;;;;;;;;;;5062104;28;20369;-73
2023/06/28 13:13:10;;;;;;;2.97;1.08;;;;;;;;;;5061907;28;20035;-72
2023/06/28 13:15:36;;;;;;;1.40;1.02;;;;;;;;;;5061803;28;20065;-70
2023/06/28 13:18:02;;;;;;;3.88;1.13;;;;;;;;;;5061990;28;20036;-73
2023/06/28 13:20:27;;;;;;;6.28;1.08;;;;;;;;;;5061956;28;20036;-72
2023/06/28 13:22:53;;;;;;;2.33;1.15;;;;;;;;;;5060411;28;20048;-73
2023/06/28 13:25:20;;;;;;;1.80;1.02;;;;;;;;;;5061445;28;20397;-72
2023/06/28 13:27:45;;;;;;;2.00;1.08;;;;;;;;;;5060094;28;20243;-72
2023/06/28 13:30:11;;;;;;;4.10;1.08;;;;;;;;;;5061576;28;20088;-73
2023/06/28 13:32:36;;;;;;;2.03;0.88;;;;;;;;;;5061236;28;20036;-73
2023/06/28 13:35:02;;;;;;;1.50;1.00;;;;;;;;;;5061792;28;20028;-73
2023/06/28 13:37:27;;;;;;;1.92;0.98;;;;;;;;;;5061257;28;20032;-74
2023/06/28 13:39:53;;;;;;;2.08;1.00;;;;;;;;;;5061466;28;20014;-73
2023/06/28 13:42:19;;;;;;;3.47;1.10;;;;;;;;;;5061854;28;20333;-72
2023/06/28 13:44:44;;;;;;;1.60;0.90;;;;;;;;;;5061376;28;20552;-73
2023/06/28 13:47:10;;;;;;;3.15;1.17;;;;;;;;;;5061242;28;20025;-73
2023/06/28 13:49:35;;;;;;;2.08;1.00;;;;;;;;;;5061234;28;20086;-70
2023/06/28 13:52:01;;;;;;;2.33;1.40;;;;;;;;;;5060840;28;20025;-74
2023/06/28 13:54:27;;;;;;;2.20;1.08;;;;;;;;;;5061237;28;20225;-74
2023/06/28 13:56:52;;;;;;;2.58;0.98;;;;;;;;;;5060899;28;20090;-73
2023/06/28 13:59:18;;;;;;;2.28;1.13;;;;;;;;;;5060978;28;20032;-74
2023/06/28 14:01:43;;;;;;;1.95;1.00;;;;;;;;;;5061172;28;20420;-73
2023/06/28 14:04:10;;;;;;;2.10;1.20;;;;;;;;;;5060925;28;20025;-72
2023/06/28 14:06:35;;;;;;;2.78;1.27;;;;;;;;;;5060478;28;20352;-71
2023/06/28 14:09:01;;;;;;;1.92;1.08;;;;;;;;;;5060898;28;20032;-73
2023/06/28 14:11:26;;;;;;;2.90;1.20;;;;;;;;;;5060864;28;20032;-72
2023/06/28 14:13:52;;;;;;;3.28;1.17;;;;;;;;;;5060805;28;20037;-72
2023/06/28 14:16:17;;;;;;;2.53;1.10;;;;;;;;;;5060933;28;20032;-72
2023/06/28 14:18:42;;;;;;;2.08;1.30;;;;;;;;;;5060667;28;20017;-73
2023/06/28 14:21:08;;;;;;;3.28;1.23;;;;;;;;;;5060546;28;20070;-69
2023/06/28 14:23:33;;;;;;;2.53;1.40;;;;;;;;;;5058393;28;20025;-72
2023/06/28 14:25:59;;;;;;;2.03;1.02;;;;;;;;;;5060286;28;20045;-70
2023/06/28 14:28:24;;;;;;;3.13;1.17;;;;;;;;;;5060418;28;20033;-73
2023/06/28 14:30:49;;;;;;;4.90;1.10;;;;;;;;;;5060610;28;20232;-72
2023/06/28 14:33:16;;;;;;;1.90;1.00;;;;;;;;;;5060177;28;20056;-71
2023/06/28 14:35:42;;;;;;;2.20;1.13;;;;;;;;;;5060181;28;20041;-73
2023/06/28 14:38:07;;;;;;;4.10;1.33;;;;;;;;;;5058084;28;20020;-73
2023/06/28 14:40:32;;;;;;;2.28;1.10;;;;;;;;;;5059428;28;20029;-72